Time;durP1;ratioP1;P1;durP2;ratioP2;P2;SDS_P1;SDS_P2;PMS_P1;PMS_P2;Temp;Humidity;BMP_temperature;BMP_pressure;BME280_temperature;BME280_humidity;BME280_pressure;Samples;Min_cycle;Max_cycle;Signal;HPM_P1;HPM_P2
2023/11/19 04:01:43;;;;;;;3.25;2.30;;;10.20;99.90;;;;;;5480457;23;20118;-76
2023/11/19 04:04:08;;;;;;;4.93;2.85;;;10.20;99.90;;;;;;4979128;28;20482;-77
2023/11/19 04:06:34;;;;;;;3.47;2.38;;;10.20;99.90;;;;;;4978195;28;20018;-77
2023/11/19 04:08:59;;;;;;;3.65;2.60;;;10.20;99.90;;;;;;4977961;28;20045;-76
2023/11/19 04:11:25;;;;;;;3.22;2.60;;;10.20;99.90;;;;;;4977414;28;20106;-77
2023/11/19 04:13:50;;;;;;;3.30;2.33;;;10.20;99.90;;;;;;4972081;28;20054;-77
2023/11/19 04:16:16;;;;;;;2.83;2.00;;;10.20;99.90;;;;;;4979799;28;20039;-75
2023/11/19 04:18:41;;;;;;;2.65;2.05;;;10.20;99.90;;;;;;4984464;28;20039;-76
2023/11/19 04:21:07;;;;;;;3.50;2.25;;;10.20;99.90;;;;;;4980029;28;20026;-77
2023/11/19 04:23:33;;;;;;;2.65;2.05;;;10.20;99.90;;;;;;4975876;28;20030;-77
2023/11/19 04:26:02;;;;;;;2.88;2.13;;;10.20;99.90;;;;;;4977543;28;20057;-75
2023/11/19 04:28:28;;;;;;;3.50;2.72;;;10.20;99.90;;;;;;4982805;28;20057;-77
2023/11/19 04:30:54;;;;;;;2.20;1.83;;;10.20;99.90;;;;;;4983232;28;20051;-76
2023/11/19 04:33:19;;;;;;;2.13;1.98;;;10.20;99.90;;;;;;4980138;28;20031;-76
2023/11/19 04:35:45;;;;;;;2.55;2.00;;;10.20;99.90;;;;;;4979911;28;20029;-76
2023/11/19 04:38:10;;;;;;;3.13;2.38;;;10.20;99.90;;;;;;4974134;28;20521;-77
2023/11/19 04:40:36;;;;;;;2.50;2.28;;;10.20;99.90;;;;;;4981382;28;20151;-76
2023/11/19 04:43:02;;;;;;;2.75;2.00;;;10.20;99.90;;;;;;4987488;28;20023;-77
2023/11/19 04:45:27;;;;;;;3.13;2.08;;;10.20;99.90;;;;;;4979349;28;20034;-77
2023/11/19 04:47:53;;;;;;;3.05;2.17;;;10.20;99.90;;;;;;4975381;28;20023;-77
2023/11/19 04:50:18;;;;;;;2.40;1.85;;;10.20;99.90;;;;;;4981295;28;20023;-76
2023/11/19 04:52:45;;;;;;;3.10;2.20;;;10.20;99.90;;;;;;4983800;28;20503;-77
2023/11/19 04:55:14;;;;;;;2.72;2.00;;;10.20;99.90;;;;;;4983408;28;20054;-76
2023/11/19 04:57:40;;;;;;;2.63;2.00;;;10.20;99.90;;;;;;4978421;28;20019;-77
2023/11/19 05:00:07;;;;;;;2.55;2.10;;;10.20;99.90;;;;;;4978896;28;20030;-76
2023/11/19 05:02:34;;;;;;;4.40;2.78;;;10.20;99.90;;;;;;4974959;28;20065;-77
2023/11/19 05:04:59;;;;;;;3.53;2.22;;;10.20;99.90;;;;;;4977943;28;20038;-77
2023/11/19 05:07:24;;;;;;;2.47;2.17;;;10.20;99.90;;;;;;4984282;28;20027;-76
2023/11/19 05:09:50;;;;;;;2.95;2.47;;;10.20;99.90;;;;;;4975743;28;20019;-76
2023/11/19 05:12:16;;;;;;;3.85;2.38;;;10.20;99.90;;;;;;4975842;28;20070;-76
2023/11/19 05:14:48;;;;;;;3.70;2.88;;;10.20;99.90;;;;;;4981782;28;20436;-75
2023/11/19 05:17:13;;;;;;;3.97;2.72;;;10.20;99.90;;;;;;4988689;28;20022;-76
2023/11/19 05:19:39;;;;;;;4.28;3.13;;;10.20;99.90;;;;;;4984068;28;20109;-76
2023/11/19 05:22:06;;;;;;;4.22;2.95;;;10.20;99.90;;;;;;4977457;28;20455;-76
2023/11/19 05:24:31;;;;;;;5.65;3.40;;;10.20;99.90;;;;;;4981525;28;20120;-76
2023/11/19 05:26:58;;;;;;;3.45;2.67;;;10.20;99.90;;;;;;4985125;28;20471;-75
2023/11/19 05:29:24;;;;;;;4.25;2.92;;;10.20;99.90;;;;;;4989790;28;20018;-76
2023/11/19 05:31:49;;;;;;;4.35;3.40;;;10.20;99.90;;;;;;4983013;28;20047;-75
2023/11/19 05:34:15;;;;;;;4.82;3.38;;;10.20;99.90;;;;;;4977959;28;20496;-74
2023/11/19 05:36:41;;;;;;;5.03;3.30;;;10.20;99.90;;;;;;4983125;28;20034;-75
2023/11/19 05:39:06;;;;;;;5.53;3.33;;;10.20;99.90;;;;;;4986194;28;20018;-76
2023/11/19 05:41:32;;;;;;;5.28;3.70;;;10.20;99.90;;;;;;4988610;28;20042;-76
2023/11/19 05:43:57;;;;;;;6.13;3.65;;;10.20;99.90;;;;;;4977742;28;20444;-76
2023/11/19 05:46:25;;;;;;;5.75;3.80;;;10.20;99.90;;;;;;4982017;28;20027;-77
2023/11/19 05:48:51;;;;;;;5.30;3.50;;;10.20;99.90;;;;;;4983395;28;20022;-76
2023/11/19 05:51:16;;;;;;;5.07;2.72;;;10.20;99.90;;;;;;4983012;28;20423;-76
2023/11/19 05:53:42;;;;;;;5.05;3.55;;;10.20;99.90;;;;;;4990889;28;20037;-76
2023/11/19 05:56:09;;;;;;;4.63;3.55;;;10.20;99.90;;;;;;4976280;28;20029;-76
2023/11/19 05:58:35;;;;;;;4.50;3.15;;;10.20;99.90;;;;;;4978474;28;20049;-76
2023/11/19 06:01:01;;;;;;;3.72;2.90;;;10.20;99.90;;;;;;4983813;28;20033;-76
2023/11/19 06:03:27;;;;;;;4.50;2.90;;;10.30;99.90;;;;;;4987841;28;20022;-76
2023/11/19 06:05:54;;;;;;;8.18;3.65;;;10.30;99.90;;;;;;4985118;28;20645;-76
2023/11/19 06:08:20;;;;;;;4.90;3.42;;;10.20;99.90;;;;;;4973561;28;20019;-76
2023/11/19 06:10:46;;;;;;;6.47;3.63;;;10.20;99.90;;;;;;4980299;28;20543;-76
2023/11/19 06:13:14;;;;;;;3.40;2.97;;;10.20;99.90;;;;;;4984429;28;20109;-76
2023/11/19 06:15:41;;;;;;;6.30;3.70;;;10.30;99.90;;;;;;4987422;28;20081;-76
2023/11/19 06:18:07;;;;;;;3.63;2.95;;;10.20;99.90;;;;;;4983041;28;20022;-76
2023/11/19 06:20:33;;;;;;;6.00;3.80;;;10.20;99.90;;;;;;4977376;28;20035;-76
2023/11/19 06:23:00;;;;;;;4.35;3.10;;;10.20;99.90;;;;;;4981645;28;20045;-76
2023/11/19 06:25:25;;;;;;;4.93;3.55;;;10.30;99.90;;;;;;4984624;28;20109;-75
2023/11/19 06:27:52;;;;;;;6.55;4.07;;;10.20;99.90;;;;;;4986538;28;20098;-76
2023/11/19 06:30:18;;;;;;;4.47;3.67;;;10.20;99.90;;;;;;4978444;28;20424;-76
2023/11/19 06:32:43;;;;;;;6.68;3.67;;;10.20;99.90;;;;;;4977687;28;20031;-76
2023/11/19 06:35:09;;;;;;;5.38;3.47;;;10.20;99.90;;;;;;4982228;28;20023;-76
2023/11/19 06:37:35;;;;;;;6.40;4.15;;;10.20;99.90;;;;;;4986478;28;20509;-76
2023/11/19 06:40:01;;;;;;;5.30;3.88;;;10.30;99.90;;;;;;4986689;28;20109;-76
2023/11/19 06:42:27;;;;;;;5.03;3.35;;;10.20;99.90;;;;;;4976557;28;20113;-76
2023/11/19 06:44:52;;;;;;;5.80;3.45;;;10.20;99.90;;;;;;4976504;28;20406;-75
2023/11/19 06:47:18;;;;;;;3.88;3.30;;;10.30;99.90;;;;;;4982435;28;20698;-78
2023/11/19 06:49:44;;;;;;;6.05;3.75;;;10.20;99.90;;;;;;4985788;28;20046;-76
2023/11/19 06:52:10;;;;;;;5.10;4.10;;;10.20;99.90;;;;;;4978834;28;20110;-76
2023/11/19 06:54:36;;;;;;;4.00;3.08;;;10.20;99.90;;;;;;4974415;28;20102;-76
2023/11/19 06:57:02;;;;;;;5.10;3.42;;;10.20;99.90;;;;;;4982009;28;20023;-76
2023/11/19 06:59:29;;;;;;;4.18;3.15;;;10.20;99.90;;;;;;4984121;28;20114;-76
2023/11/19 07:01:55;;;;;;;5.20;3.63;;;10.20;99.90;;;;;;4986998;28;20042;-75
2023/11/19 07:04:21;;;;;;;5.53;3.28;;;10.20;99.90;;;;;;4979641;28;20443;-76
2023/11/19 07:06:48;;;;;;;7.32;4.05;;;10.20;99.90;;;;;;4980995;28;20552;-75
2023/11/19 07:09:13;;;;;;;7.18;3.88;;;10.30;99.90;;;;;;4977198;28;20026;-76
2023/11/19 07:11:40;;;;;;;4.82;3.33;;;10.30;99.90;;;;;;4984441;28;20105;-75
2023/11/19 07:14:06;;;;;;;5.28;3.65;;;10.30;99.90;;;;;;4988184;28;20022;-76
2023/11/19 07:16:34;;;;;;;4.72;3.33;;;10.20;99.90;;;;;;4979801;28;20399;-76
2023/11/19 07:19:00;;;;;;;4.80;3.60;;;10.20;99.90;;;;;;4977629;28;20036;-75
2023/11/19 07:21:28;;;;;;;4.82;3.20;;;10.20;99.90;;;;;;4981139;28;20077;-76
2023/11/19 07:23:54;;;;;;;4.13;3.17;;;10.20;99.90;;;;;;4984069;28;20031;-76
2023/11/19 07:26:20;;;;;;;5.32;3.45;;;10.20;99.90;;;;;;4985338;28;20025;-76
2023/11/19 07:28:45;;;;;;;6.72;3.70;;;10.20;99.90;;;;;;4975311;28;20019;-76
2023/11/19 07:31:12;;;;;;;4.85;3.40;;;10.20;99.90;;;;;;4976745;28;20018;-76
2023/11/19 07:33:42;;;;;;;5.60;3.33;;;10.20;99.90;;;;;;4982029;28;20608;-77
2023/11/19 07:36:08;;;;;;;4.15;3.33;;;10.30;99.90;;;;;;4981877;28;20407;-76
2023/11/19 07:38:34;;;;;;;5.80;3.95;;;10.30;99.90;;;;;;4984437;28;20109;-76
2023/11/19 07:40:59;;;;;;;7.18;4.05;;;10.30;99.90;;;;;;4974772;28;20126;-76
2023/11/19 07:43:25;;;;;;;6.35;3.50;;;10.30;99.90;;;;;;4971869;28;20023;-76
2023/11/19 07:45:51;;;;;;;8.20;4.20;;;10.30;99.90;;;;;;4978645;28;20525;-76
2023/11/19 07:48:18;;;;;;;7.65;3.97;;;10.30;99.90;;;;;;4971483;28;20023;-77
2023/11/19 07:50:43;;;;;;;5.63;3.67;;;10.30;99.90;;;;;;4971966;28;20051;-76
2023/11/19 07:53:08;;;;;;;8.38;3.80;;;10.30;99.90;;;;;;4978974;28;20046;-75
2023/11/19 07:55:34;;;;;;;5.70;4.03;;;10.30;99.90;;;;;;4978766;28;20126;-76
2023/11/19 07:58:01;;;;;;;5.30;3.97;;;10.30;99.90;;;;;;4981457;28;20031;-76
2023/11/19 08:00:26;;;;;;;6.43;3.78;;;10.30;99.90;;;;;;4986400;28;20045;-76
2023/11/19 08:02:52;;;;;;;7.65;4.50;;;10.30;99.90;;;;;;4971587;28;20717;-76
2023/11/19 08:05:17;;;;;;;6.68;3.60;;;10.30;99.90;;;;;;4977321;28;20475;-77
2023/11/19 08:07:43;;;;;;;7.72;3.80;;;10.30;99.90;;;;;;4976186;28;20491;-75
2023/11/19 08:10:09;;;;;;;5.70;4.50;;;10.30;99.90;;;;;;4984397;28;20053;-76
2023/11/19 08:12:36;;;;;;;7.38;4.07;;;10.30;99.90;;;;;;4979349;28;20019;-77
2023/11/19 08:15:04;;;;;;;5.18;3.97;;;10.30;99.90;;;;;;4973324;28;20081;-76
2023/11/19 08:17:30;;;;;;;5.20;4.28;;;10.30;99.90;;;;;;4977827;28;20035;-75
2023/11/19 08:19:56;;;;;;;6.70;4.38;;;10.30;99.90;;;;;;4978476;28;20041;-75
2023/11/19 08:22:22;;;;;;;5.85;3.92;;;10.30;99.90;;;;;;4984536;28;20034;-76
2023/11/19 08:24:48;;;;;;;6.55;3.85;;;10.30;99.90;;;;;;4979174;28;20019;-76
2023/11/19 08:27:14;;;;;;;6.85;4.28;;;10.30;99.90;;;;;;4976811;28;20023;-76
2023/11/19 08:29:40;;;;;;;6.85;4.15;;;10.30;99.90;;;;;;4976694;28;20023;-76
2023/11/19 08:32:06;;;;;;;4.72;3.75;;;10.30;99.90;;;;;;4973170;28;20049;-76
2023/11/19 08:34:32;;;;;;;7.22;4.32;;;10.30;99.90;;;;;;4981622;28;20022;-76
2023/11/19 08:36:58;;;;;;;6.15;4.18;;;10.30;99.90;;;;;;4978159;28;20019;-76
2023/11/19 08:39:24;;;;;;;5.45;3.65;;;10.30;99.90;;;;;;4975870;28;20029;-75
2023/11/19 08:41:50;;;;;;;6.75;3.70;;;10.30;99.90;;;;;;4977132;28;20019;-75
2023/11/19 08:44:16;;;;;;;6.28;4.45;;;10.30;99.90;;;;;;4983246;28;20027;-75
2023/11/19 08:46:50;;;;;;;5.65;4.03;;;10.30;99.90;;;;;;4973981;28;20472;-75
2023/11/19 08:49:16;;;;;;;6.25;3.60;;;10.30;99.90;;;;;;4970001;28;20110;-75
2023/11/19 08:51:42;;;;;;;5.28;3.60;;;10.30;99.90;;;;;;4970406;28;20134;-76
2023/11/19 08:54:07;;;;;;;4.65;3.58;;;10.30;99.90;;;;;;4975676;28;20022;-75
2023/11/19 08:56:35;;;;;;;5.25;3.67;;;10.30;99.90;;;;;;4971579;28;20479;-75
2023/11/19 08:59:01;;;;;;;4.53;3.40;;;10.30;99.90;;;;;;4975473;28;20034;-75
2023/11/19 09:01:26;;;;;;;4.80;3.42;;;10.30;99.90;;;;;;4973234;28;20035;-76
2023/11/19 09:03:52;;;;;;;5.20;3.60;;;10.30;99.90;;;;;;4988637;28;20031;-74
2023/11/19 09:06:17;;;;;;;6.55;3.40;;;10.30;99.90;;;;;;4970481;28;20522;-75
2023/11/19 09:08:43;;;;;;;5.22;3.83;;;10.40;99.90;;;;;;4979812;28;20065;-76
2023/11/19 09:11:09;;;;;;;5.07;3.13;;;10.40;99.90;;;;;;4976784;28;20446;-76
2023/11/19 09:13:35;;;;;;;4.68;3.25;;;10.40;99.90;;;;;;4973307;28;20592;-80
2023/11/19 09:16:03;;;;;;;5.15;3.75;;;10.40;99.90;;;;;;4975859;28;20039;-75
2023/11/19 09:18:29;;;;;;;4.25;3.03;;;10.40;99.90;;;;;;4971325;28;20027;-76
2023/11/19 09:20:54;;;;;;;8.95;3.90;;;10.40;99.90;;;;;;4973999;28;20037;-76
2023/11/19 09:23:20;;;;;;;4.65;3.35;;;10.50;99.90;;;;;;4974778;28;20027;-76
2023/11/19 09:25:46;;;;;;;4.20;3.22;;;10.50;99.90;;;;;;4972946;28;20058;-76
2023/11/19 09:28:13;;;;;;;6.72;3.35;;;10.40;99.90;;;;;;4970685;28;20122;-76
2023/11/19 09:30:38;;;;;;;5.05;3.25;;;10.50;99.90;;;;;;4978552;28;20487;-77
2023/11/19 09:33:04;;;;;;;4.90;3.28;;;10.50;99.90;;;;;;4975240;28;20031;-75
2023/11/19 09:35:29;;;;;;;4.15;2.97;;;10.50;99.90;;;;;;4977662;28;20115;-76
2023/11/19 09:37:55;;;;;;;4.53;2.92;;;10.60;99.90;;;;;;4976115;28;20058;-76
2023/11/19 09:40:20;;;;;;;3.85;2.90;;;10.60;99.90;;;;;;4978444;28;20034;-76
2023/11/19 09:42:47;;;;;;;4.57;3.28;;;10.60;99.90;;;;;;4978497;28;20030;-75
2023/11/19 09:45:17;;;;;;;3.45;2.75;;;10.60;99.90;;;;;;4976983;28;20297;-76
2023/11/19 09:47:45;;;;;;;4.32;2.97;;;10.60;99.90;;;;;;4976564;28;20038;-77
2023/11/19 09:50:18;;;;;;;6.22;3.47;;;10.60;99.90;;;;;;4974781;28;20097;-76
2023/11/19 09:52:45;;;;;;;5.03;3.30;;;10.60;99.90;;;;;;4981980;28;20431;-76
2023/11/19 09:55:10;;;;;;;4.30;3.20;;;10.60;99.90;;;;;;4978704;28;20077;-76
2023/11/19 09:57:39;;;;;;;4.43;3.45;;;10.60;99.90;;;;;;4980704;28;20037;-76
2023/11/19 10:00:07;;;;;;;3.28;2.88;;;10.60;99.90;;;;;;4976028;28;20093;-77
2023/11/19 10:02:36;;;;;;;3.70;2.83;;;10.50;99.90;;;;;;4977585;28;20042;-76
2023/11/19 10:05:05;;;;;;;4.20;3.05;;;10.50;99.90;;;;;;4982022;28;20050;-77
2023/11/19 10:07:32;;;;;;;5.20;3.03;;;10.60;99.90;;;;;;4998898;28;20057;-76
2023/11/19 10:10:00;;;;;;;4.95;2.63;;;10.50;99.90;;;;;;4983924;28;20270;-77
2023/11/19 10:12:26;;;;;;;3.35;2.85;;;10.50;99.90;;;;;;4977356;28;20093;-74
2023/11/19 10:14:54;;;;;;;4.13;3.38;;;10.50;99.90;;;;;;4983330;28;20019;-77
2023/11/19 10:17:20;;;;;;;4.38;2.85;;;10.50;99.90;;;;;;4982532;28;20037;-76
2023/11/19 10:19:45;;;;;;;3.13;2.40;;;10.60;99.90;;;;;;4980111;28;20027;-77
2023/11/19 10:22:11;;;;;;;4.72;3.20;;;10.60;99.90;;;;;;4979917;28;20031;-76
2023/11/19 10:24:38;;;;;;;4.03;2.55;;;10.60;99.90;;;;;;4978486;28;20488;-75
2023/11/19 10:27:08;;;;;;;2.90;2.38;;;10.60;99.90;;;;;;4980518;28;20033;-76
2023/11/19 10:29:39;;;;;;;3.50;2.60;;;10.60;99.90;;;;;;4981998;28;20019;-76
2023/11/19 10:32:05;;;;;;;3.03;2.42;;;10.60;99.90;;;;;;4982360;28;20027;-76
2023/11/19 10:34:30;;;;;;;2.60;2.05;;;10.60;99.90;;;;;;4978207;28;20556;-77
2023/11/19 10:36:56;;;;;;;3.45;2.38;;;10.70;99.90;;;;;;4980668;28;20034;-76
2023/11/19 10:39:23;;;;;;;2.38;2.17;;;10.70;99.90;;;;;;4977792;28;20053;-76
2023/11/19 10:41:49;;;;;;;3.60;2.00;;;10.70;99.90;;;;;;4977702;28;20058;-78
2023/11/19 10:44:35;;;;;;;2.33;1.92;;;10.70;99.90;;;;;;4982067;28;20087;-76
2023/11/19 10:47:01;;;;;;;3.63;2.30;;;10.80;99.90;;;;;;4977976;28;20023;-77
2023/11/19 10:49:26;;;;;;;2.22;2.03;;;10.70;99.90;;;;;;4980325;28;20053;-77
2023/11/19 10:51:53;;;;;;;3.55;2.20;;;10.70;99.90;;;;;;4985774;28;20021;-77
2023/11/19 10:54:20;;;;;;;2.35;2.00;;;10.70;99.90;;;;;;4977865;28;20066;-75
2023/11/19 10:56:53;;;;;;;8.30;2.38;;;10.70;99.90;;;;;;4980301;28;20559;-77
2023/11/19 10:59:21;;;;;;;2.40;2.00;;;10.80;99.90;;;;;;4977246;28;20542;-76
2023/11/19 11:01:50;;;;;;;2.30;1.40;;;10.80;99.90;;;;;;4983489;28;20034;-74
2023/11/19 11:04:22;;;;;;;7.40;1.50;;;11.20;99.90;;;;;;4982326;28;20435;-73
2023/11/19 11:06:48;;;;;;;2.60;1.20;;;13.90;99.90;;;;;;4973144;28;20387;-74
2023/11/19 11:09:15;;;;;;;5.15;1.48;;;15.00;99.90;;;;;;4980700;28;20023;-73
2023/11/19 11:11:40;;;;;;;6.65;1.27;;;15.20;99.90;;;;;;4981648;28;20590;-72
2023/11/19 11:14:09;;;;;;;4.07;1.45;;;15.20;99.90;;;;;;4982842;28;20108;-73
2023/11/19 11:16:37;;;;;;;1.10;0.90;;;14.90;99.90;;;;;;4974779;28;20020;-73
2023/11/19 11:19:04;;;;;;;1.88;1.10;;;15.00;99.90;;;;;;4979935;28;20015;-73
2023/11/19 11:21:31;;;;;;;1.00;0.90;;;15.00;99.90;;;;;;4976740;28;20042;-73
2023/11/19 11:24:07;;;;;;;0.65;0.65;;;15.10;99.90;;;;;;4981518;28;20112;-73
2023/11/19 11:26:32;;;;;;;2.13;1.00;;;15.30;99.90;;;;;;4978601;28;20031;-72
2023/11/19 11:29:13;;;;;;;1.58;0.80;;;15.40;99.90;;;;;;4983529;28;20068;-73
2023/11/19 11:31:57;;;;;;;0.93;0.93;;;15.30;99.90;;;;;;4982567;28;20065;-73
2023/11/19 11:34:34;;;;;;;3.70;0.80;;;15.30;99.90;;;;;;4977911;28;20046;-73
2023/11/19 11:37:09;;;;;;;2.17;1.10;;;15.20;99.90;;;;;;4978230;28;20041;-73
2023/11/19 11:39:36;;;;;;;0.88;0.82;;;15.40;99.90;;;;;;4976515;28;20034;-72
2023/11/19 11:42:22;;;;;;;0.90;0.90;;;15.50;99.90;;;;;;4978029;28;20019;-72
2023/11/19 11:45:09;;;;;;;0.88;0.80;;;15.50;99.90;;;;;;4965457;28;20042;-72
2023/11/19 11:47:44;;;;;;;1.05;0.90;;;15.60;99.90;;;;;;4972372;28;20605;-73
2023/11/19 11:50:11;;;;;;;1.05;0.95;;;15.40;99.90;;;;;;4983928;28;20045;-72
2023/11/19 11:52:56;;;;;;;0.82;0.82;;;15.50;99.90;;;;;;4977092;28;20035;-72
2023/11/19 11:55:33;;;;;;;1.15;0.82;;;15.50;99.90;;;;;;4970585;28;20034;-72
2023/11/19 11:57:59;;;;;;;1.23;1.10;;;15.50;99.90;;;;;;4979406;28;20077;-72
2023/11/19 12:00:41;;;;;;;1.63;1.20;;;15.50;99.90;;;;;;4982315;28;20027;-74
2023/11/19 12:03:07;;;;;;;1.75;1.15;;;15.50;99.90;;;;;;4990640;28;20033;-72
2023/11/19 12:05:38;;;;;;;0.80;0.80;;;15.70;99.90;;;;;;4982900;28;20051;-73
2023/11/19 12:08:06;;;;;;;1.58;0.95;;;15.60;99.90;;;;;;4976788;28;20042;-73
2023/11/19 12:10:37;;;;;;;0.93;0.88;;;15.70;99.90;;;;;;4979037;28;20019;-73
2023/11/19 12:13:06;;;;;;;1.10;0.98;;;15.70;99.90;;;;;;4978005;28;20018;-74
2023/11/19 12:15:33;;;;;;;2.92;1.00;;;15.60;99.90;;;;;;4973536;28;20031;-75
2023/11/19 12:17:59;;;;;;;5.72;2.20;;;15.60;99.90;;;;;;4975690;28;20030;-75
2023/11/19 12:20:26;;;;;;;5.28;1.33;;;15.50;99.90;;;;;;4974885;28;20014;-75
2023/11/19 12:22:53;;;;;;;3.17;1.20;;;15.40;99.90;;;;;;4979344;28;20033;-76
2023/11/19 12:25:23;;;;;;;3.35;1.00;;;15.60;99.90;;;;;;4976188;28;20057;-75
2023/11/19 12:27:50;;;;;;;2.08;1.48;;;15.70;99.90;;;;;;4967788;28;20060;-76
2023/11/19 12:30:26;;;;;;;0.88;0.88;;;15.90;99.90;;;;;;4978766;28;20038;-77
2023/11/19 12:32:53;;;;;;;1.23;0.90;;;15.90;99.90;;;;;;4977157;28;20065;-74
2023/11/19 12:35:19;;;;;;;2.92;1.10;;;16.00;99.90;;;;;;4973008;28;20038;-74
2023/11/19 12:37:49;;;;;;;3.60;1.40;;;15.90;99.90;;;;;;4976994;28;20022;-74
2023/11/19 12:40:17;;;;;;;2.00;1.40;;;15.80;99.90;;;;;;4976497;28;20057;-74
2023/11/19 12:42:43;;;;;;;3.70;1.27;;;15.70;99.90;;;;;;4971847;28;20752;-77
2023/11/19 12:45:12;;;;;;;5.85;1.65;;;15.70;99.90;;;;;;4980031;28;20395;-74
2023/11/19 12:47:40;;;;;;;1.98;1.15;;;15.70;99.90;;;;;;4976598;28;20138;-72
2023/11/19 12:50:06;;;;;;;2.33;1.15;;;15.70;99.90;;;;;;4977643;28;20492;-74
2023/11/19 12:52:32;;;;;;;2.72;1.45;;;15.70;99.90;;;;;;4979023;28;20034;-74
2023/11/19 12:54:58;;;;;;;2.35;1.20;;;15.60;99.90;;;;;;4974086;28;20019;-74
2023/11/19 12:57:40;;;;;;;1.27;1.00;;;15.60;99.90;;;;;;4980480;28;20042;-74
2023/11/19 13:00:09;;;;;;;1.70;1.23;;;15.60;99.90;;;;;;4986766;28;20109;-74
2023/11/19 13:02:49;;;;;;;4.88;2.15;;;15.40;99.90;;;;;;4979287;28;20050;-73
2023/11/19 13:05:26;;;;;;;1.95;1.60;;;15.50;99.90;;;;;;4975796;28;20027;-73
2023/11/19 13:08:05;;;;;;;4.85;2.13;;;15.60;99.90;;;;;;4979779;28;20026;-73
2023/11/19 13:10:55;;;;;;;6.88;1.98;;;15.60;99.90;;;;;;4978946;28;20565;-73
2023/11/19 13:13:21;;;;;;;4.20;1.85;;;15.50;99.90;;;;;;4969999;28;20117;-74
2023/11/19 13:15:47;;;;;;;2.25;1.50;;;15.50;99.90;;;;;;4974531;28;20097;-74
2023/11/19 13:18:13;;;;;;;5.15;1.63;;;15.50;99.90;;;;;;4977882;28;20493;-74
2023/11/19 13:20:40;;;;;;;3.70;1.83;;;15.50;99.90;;;;;;4977857;28;20054;-74
2023/11/19 13:23:10;;;;;;;1.88;1.30;;;15.50;99.90;;;;;;4978650;28;20101;-74
2023/11/19 13:25:35;;;;;;;;;;;15.50;99.90;;;;;;4976678;28;20052;-74
2023/11/19 13:28:01;;;;;;;1.55;1.08;;;15.50;99.90;;;;;;4979353;28;19906;-74
2023/11/19 13:30:27;;;;;;;2.10;1.38;;;15.50;99.90;;;;;;4979261;28;20022;-74
2023/11/19 13:32:54;;;;;;;3.45;1.90;;;15.60;99.90;;;;;;4982632;28;20041;-74
2023/11/19 13:35:22;;;;;;;2.30;1.27;;;15.60;99.90;;;;;;4978449;28;20018;-74
2023/11/19 13:37:47;;;;;;;1.20;1.08;;;15.60;99.90;;;;;;4984491;28;20503;-80
2023/11/19 13:40:16;;;;;;;2.03;1.40;;;15.60;99.90;;;;;;4981614;28;20035;-77
2023/11/19 13:42:42;;;;;;;1.23;1.10;;;14.50;99.90;;;;;;4978958;28;20440;-77
2023/11/19 13:45:12;;;;;;;1.55;1.33;;;13.50;99.90;;;;;;4982453;28;20066;-77
2023/11/19 13:47:41;;;;;;;4.72;1.23;;;12.90;99.90;;;;;;4980257;28;20500;-77
2023/11/19 13:50:10;;;;;;;1.33;0.90;;;12.60;99.90;;;;;;4980492;28;20035;-77
2023/11/19 13:52:41;;;;;;;1.52;1.15;;;12.40;99.90;;;;;;4977072;28;20110;-75
2023/11/19 13:55:08;;;;;;;2.22;1.13;;;12.20;99.90;;;;;;4967997;28;20166;-75
2023/11/19 13:57:35;;;;;;;1.05;0.95;;;12.20;99.90;;;;;;4980805;28;20145;-76
2023/11/19 14:00:05;;;;;;;2.28;1.20;;;12.10;99.90;;;;;;4985405;28;20022;-76
2023/11/19 14:02:31;;;;;;;1.30;1.20;;;12.00;99.90;;;;;;4981981;28;20038;-74
2023/11/19 14:04:57;;;;;;;2.28;1.15;;;12.00;99.90;;;;;;4981338;28;20031;-75
2023/11/19 14:07:22;;;;;;;0.98;0.93;;;12.00;99.90;;;;;;4983881;28;20038;-78
2023/11/19 14:09:48;;;;;;;30.58;2.95;;;12.00;99.90;;;;;;4979886;28;20116;-84
2023/11/19 14:12:13;;;;;;;2.35;1.48;;;15.10;99.90;;;;;;4976226;28;20033;-80
2023/11/19 14:14:39;;;;;;;4.80;1.65;;;16.90;99.90;;;;;;4983953;28;20636;-78
2023/11/19 14:17:05;;;;;;;6.32;1.52;;;16.90;99.90;;;;;;4982175;28;20527;-80
2023/11/19 14:19:30;;;;;;;5.18;1.98;;;16.20;99.90;;;;;;4978765;28;20074;-77
2023/11/19 14:21:56;;;;;;;38.85;6.93;;;15.80;99.90;;;;;;4982030;28;20029;-78
2023/11/19 14:24:22;;;;;;;14.00;5.72;;;17.00;99.90;;;;;;4979234;28;20051;-78
2023/11/19 14:26:48;;;;;;;17.98;6.15;;;16.40;99.90;;;;;;4978974;28;20022;-78
2023/11/19 14:29:14;;;;;;;16.60;6.65;;;16.10;99.90;;;;;;4984344;28;20656;-78
2023/11/19 14:31:39;;;;;;;16.67;7.93;;;15.80;99.90;;;;;;4977560;28;20110;-78
2023/11/19 14:34:05;;;;;;;24.17;8.07;;;15.90;99.90;;;;;;4974769;28;20050;-77
2023/11/19 14:36:31;;;;;;;17.42;7.07;;;15.90;99.90;;;;;;4975872;28;20027;-78
2023/11/19 14:38:58;;;;;;;19.15;7.97;;;15.70;99.90;;;;;;4978212;28;20031;-76
2023/11/19 14:41:24;;;;;;;17.98;8.02;;;16.20;99.90;;;;;;4976285;28;20023;-78
2023/11/19 14:43:50;;;;;;;15.98;5.70;;;16.30;99.90;;;;;;4973985;28;20038;-77
2023/11/19 14:46:15;;;;;;;10.48;5.07;;;16.10;99.90;;;;;;4980617;28;20030;-78
2023/11/19 14:48:41;;;;;;;13.77;5.10;;;16.10;99.90;;;;;;4982493;28;20463;-76
2023/11/19 14:51:06;;;;;;;11.88;4.50;;;16.10;99.90;;;;;;4980540;28;20063;-78
2023/11/19 14:53:32;;;;;;;11.85;5.38;;;16.00;99.90;;;;;;4979457;28;20018;-76
2023/11/19 14:55:58;;;;;;;30.50;6.07;;;16.00;99.90;;;;;;4979858;28;20050;-74
2023/11/19 14:58:25;;;;;;;14.45;5.25;;;16.20;99.90;;;;;;4977542;28;20055;-74
2023/11/19 15:00:51;;;;;;;19.23;5.70;;;16.40;99.90;;;;;;4977694;28;20070;-75
2023/11/19 15:03:19;;;;;;;9.55;4.55;;;16.40;99.90;;;;;;4977817;28;20644;-74
2023/11/19 15:05:45;;;;;;;9.10;2.80;;;16.40;99.90;;;;;;4975464;28;20468;-77
2023/11/19 15:08:11;;;;;;;2.30;2.10;;;15.00;99.90;;;;;;4979905;28;20030;-78
2023/11/19 15:10:37;;;;;;;1.63;1.50;;;13.80;99.90;;;;;;4976811;28;20023;-78
2023/11/19 15:13:03;;;;;;;1.90;1.50;;;13.10;99.90;;;;;;4978601;28;20398;-78
2023/11/19 15:15:29;;;;;;;1.35;1.25;;;12.70;99.90;;;;;;4980578;28;20023;-78
2023/11/19 15:17:55;;;;;;;1.30;1.20;;;12.40;99.90;;;;;;4976937;28;20039;-78
2023/11/19 15:20:20;;;;;;;2.53;1.67;;;12.20;99.90;;;;;;4973279;28;20027;-77
2023/11/19 15:22:46;;;;;;;4.07;2.20;;;12.20;99.90;;;;;;4982366;28;20027;-82
2023/11/19 15:25:13;;;;;;;2.42;1.85;;;12.10;99.90;;;;;;4980877;28;20041;-80
2023/11/19 15:27:38;;;;;;;1.83;1.50;;;12.00;99.90;;;;;;4977626;28;20503;-81
2023/11/19 15:30:05;;;;;;;1.80;1.63;;;12.00;99.90;;;;;;4979130;28;20033;-80
2023/11/19 15:32:31;;;;;;;2.75;1.40;;;11.90;99.90;;;;;;4977001;28;20377;-80
2023/11/19 15:34:58;;;;;;;1.40;1.30;;;11.90;99.90;;;;;;4983491;28;20101;-81
2023/11/19 15:37:24;;;;;;;1.58;1.20;;;11.90;99.90;;;;;;4978909;28;20097;-81
2023/11/19 15:39:51;;;;;;;1.33;1.23;;;11.80;99.90;;;;;;4989893;28;20106;-81
2023/11/19 15:42:17;;;;;;;1.42;1.20;;;11.80;99.90;;;;;;4977936;28;20022;-80
2023/11/19 15:44:43;;;;;;;1.40;1.30;;;11.80;99.90;;;;;;4978956;28;20090;-80
2023/11/19 15:47:09;;;;;;;1.30;1.20;;;11.80;99.90;;;;;;4981133;28;20029;-82
2023/11/19 15:49:35;;;;;;;1.45;1.33;;;11.80;99.90;;;;;;4962932;28;20125;-81
2023/11/19 15:52:01;;;;;;;1.30;1.20;;;11.80;99.90;;;;;;4967530;28;20030;-81
2023/11/19 15:54:27;;;;;;;2.38;1.20;;;11.70;99.90;;;;;;4977102;28;20019;-80
2023/11/19 15:56:52;;;;;;;0.90;0.82;;;11.70;99.90;;;;;;4981080;28;20430;-81
2023/11/19 15:59:18;;;;;;;1.30;1.20;;;11.70;99.90;;;;;;4981114;28;20031;-80
2023/11/19 16:01:43;;;;;;;3.63;1.10;;;11.70;99.90;;;;;;4975343;28;20031;-80
2023/11/19 16:04:09;;;;;;;1.38;1.20;;;11.70;99.90;;;;;;4979645;28;20025;-81
2023/11/19 16:06:35;;;;;;;1.80;1.52;;;11.70;99.90;;;;;;4974240;28;20030;-80
2023/11/19 16:09:02;;;;;;;4.38;1.45;;;11.70;99.90;;;;;;4977689;28;20014;-80
2023/11/19 16:11:27;;;;;;;1.35;1.10;;;11.60;99.90;;;;;;4976921;28;20098;-81
2023/11/19 16:13:53;;;;;;;2.22;1.48;;;11.60;99.90;;;;;;4973765;28;20070;-80
2023/11/19 16:16:19;;;;;;;1.50;1.20;;;11.60;99.90;;;;;;4973412;28;20647;-80
2023/11/19 16:18:44;;;;;;;1.35;1.25;;;11.60;99.90;;;;;;4978982;28;20034;-80
2023/11/19 16:21:10;;;;;;;1.40;1.30;;;11.60;99.90;;;;;;4978824;28;20026;-81
2023/11/19 16:23:35;;;;;;;1.63;1.20;;;11.60;99.90;;;;;;4984547;28;20403;-79
2023/11/19 16:26:01;;;;;;;1.50;1.20;;;11.50;99.90;;;;;;4980364;28;20428;-80
2023/11/19 16:28:27;;;;;;;2.97;1.45;;;11.50;99.90;;;;;;4979763;28;20153;-79
2023/11/19 16:30:52;;;;;;;2.33;1.20;;;11.50;99.90;;;;;;4978711;28;20030;-80
2023/11/19 16:33:18;;;;;;;1.85;1.30;;;11.50;99.90;;;;;;4978765;28;20536;-80
2023/11/19 16:35:43;;;;;;;1.48;1.10;;;11.50;99.90;;;;;;4978154;28;20129;-80
2023/11/19 16:38:09;;;;;;;2.28;1.35;;;11.50;99.90;;;;;;4975948;28;20080;-81
2023/11/19 16:40:38;;;;;;;3.10;1.30;;;11.50;99.90;;;;;;4974435;28;20031;-81
2023/11/19 16:43:07;;;;;;;2.35;1.40;;;11.50;99.90;;;;;;4973245;28;20034;-80
2023/11/19 16:45:33;;;;;;;3.80;1.67;;;11.50;99.90;;;;;;4977025;28;20031;-80